Petroleum, West Virginia
Current Conditions -  °F | °C
As of 2:53 PM on Sunday 23 Nov 2014 (Local Time) from KPKB Reporting Station
Clear Clear  
Wind Chill: 67°   Ceiling: Unl
Heat Index: 67°   Visibility: 10mi
Dew Point: 40°   Wind: 12mph
Humidity: 37%   Direction: 130°SE
Pressure: 29.85"   Gusts: 21mph
Location:  39.19°N, 81.27°W
Report Text: KPKB 231953Z 13010G18KT 10SM CLR 19/04 A2985 RMK AO2 SLP107 T01940044
Loading
Personal Weather Stations






























Interactive Weather Map New forecast layout! Learn more

10-Day Weather Forecast

Advertisements
Track Severe Weather on mobile